sensor_id;sensor_type;location;lat;lon;timestamp;temperature;humidity
45837;DHT22;31548;51.420;-0.040;2023-11-21T00:00:00;11.00;99.90
45837;DHT22;31548;51.420;-0.040;2023-11-21T00:02:39;11.10;99.90
45837;DHT22;31548;51.420;-0.040;2023-11-21T00:05:11;11.00;99.90
45837;DHT22;31548;51.420;-0.040;2023-11-21T00:07:40;11.00;99.90
45837;DHT22;31548;51.420;-0.040;2023-11-21T00:10:10;11.10;99.90
45837;DHT22;31548;51.420;-0.040;2023-11-21T00:12:38;11.10;99.90
45837;DHT22;31548;51.420;-0.040;2023-11-21T00:15:06;11.10;99.90
45837;DHT22;31548;51.420;-0.040;2023-11-21T00:17:37;11.00;99.90
45837;DHT22;31548;51.420;-0.040;2023-11-21T00:20:09;11.10;99.90
45837;DHT22;31548;51.420;-0.040;2023-11-21T00:22:40;11.10;99.90
45837;DHT22;31548;51.420;-0.040;2023-11-21T00:25:08;11.10;99.90
45837;DHT22;31548;51.420;-0.040;2023-11-21T00:27:36;11.10;99.90
45837;DHT22;31548;51.420;-0.040;2023-11-21T00:30:04;11.10;99.90
45837;DHT22;31548;51.420;-0.040;2023-11-21T00:32:33;11.10;99.90
45837;DHT22;31548;51.420;-0.040;2023-11-21T00:35:01;11.10;99.90
45837;DHT22;31548;51.420;-0.040;2023-11-21T00:37:29;11.10;99.90
45837;DHT22;31548;51.420;-0.040;2023-11-21T00:39:58;11.10;99.90
45837;DHT22;31548;51.420;-0.040;2023-11-21T00:42:25;11.10;99.90
45837;DHT22;31548;51.420;-0.040;2023-11-21T00:44:52;11.10;99.90
45837;DHT22;31548;51.420;-0.040;2023-11-21T00:47:20;11.10;99.90
45837;DHT22;31548;51.420;-0.040;2023-11-21T00:49:48;11.10;99.90
45837;DHT22;31548;51.420;-0.040;2023-11-21T00:52:16;11.10;99.90
45837;DHT22;31548;51.420;-0.040;2023-11-21T00:54:43;11.10;99.90
45837;DHT22;31548;51.420;-0.040;2023-11-21T00:57:12;11.10;99.90
45837;DHT22;31548;51.420;-0.040;2023-11-21T00:59:39;11.00;99.90
45837;DHT22;31548;51.420;-0.040;2023-11-21T01:02:07;11.00;99.90
45837;DHT22;31548;51.420;-0.040;2023-11-21T01:04:37;11.00;99.90
45837;DHT22;31548;51.420;-0.040;2023-11-21T01:07:05;11.10;99.90
45837;DHT22;31548;51.420;-0.040;2023-11-21T01:09:32;11.10;99.90
45837;DHT22;31548;51.420;-0.040;2023-11-21T01:12:00;11.10;99.90
45837;DHT22;31548;51.420;-0.040;2023-11-21T01:14:28;11.10;99.90
45837;DHT22;31548;51.420;-0.040;2023-11-21T01:16:56;11.10;99.90
45837;DHT22;31548;51.420;-0.040;2023-11-21T01:19:24;11.10;99.90
45837;DHT22;31548;51.420;-0.040;2023-11-21T01:21:52;11.10;99.90
45837;DHT22;31548;51.420;-0.040;2023-11-21T01:24:20;11.10;99.90
45837;DHT22;31548;51.420;-0.040;2023-11-21T01:26:47;11.10;99.90
45837;DHT22;31548;51.420;-0.040;2023-11-21T01:29:14;11.10;99.90
45837;DHT22;31548;51.420;-0.040;2023-11-21T01:31:42;11.10;99.90
45837;DHT22;31548;51.420;-0.040;2023-11-21T01:34:10;11.10;99.90
45837;DHT22;31548;51.420;-0.040;2023-11-21T01:36:38;11.10;99.90
45837;DHT22;31548;51.420;-0.040;2023-11-21T01:39:06;11.00;99.90
45837;DHT22;31548;51.420;-0.040;2023-11-21T01:41:36;11.10;99.90
45837;DHT22;31548;51.420;-0.040;2023-11-21T01:44:04;11.00;99.90
45837;DHT22;31548;51.420;-0.040;2023-11-21T01:46:35;11.00;99.90
45837;DHT22;31548;51.420;-0.040;2023-11-21T01:49:03;11.00;99.90
45837;DHT22;31548;51.420;-0.040;2023-11-21T01:51:31;11.00;99.90
45837;DHT22;31548;51.420;-0.040;2023-11-21T01:53:58;11.00;99.90
45837;DHT22;31548;51.420;-0.040;2023-11-21T01:56:26;11.00;99.90
45837;DHT22;31548;51.420;-0.040;2023-11-21T01:58:54;11.10;99.90
45837;DHT22;31548;51.420;-0.040;2023-11-21T02:01:22;11.10;99.90
45837;DHT22;31548;51.420;-0.040;2023-11-21T02:03:50;11.10;99.90
45837;DHT22;31548;51.420;-0.040;2023-11-21T02:06:18;11.10;99.90
45837;DHT22;31548;51.420;-0.040;2023-11-21T02:08:46;11.10;99.90
45837;DHT22;31548;51.420;-0.040;2023-11-21T02:11:13;11.10;99.90
45837;DHT22;31548;51.420;-0.040;2023-11-21T02:13:41;11.10;99.90
45837;DHT22;31548;51.420;-0.040;2023-11-21T02:16:13;11.10;99.90
45837;DHT22;31548;51.420;-0.040;2023-11-21T02:18:40;11.20;99.90
45837;DHT22;31548;51.420;-0.040;2023-11-21T02:21:09;11.10;99.90
45837;DHT22;31548;51.420;-0.040;2023-11-21T02:23:37;11.20;99.90
45837;DHT22;31548;51.420;-0.040;2023-11-21T02:26:05;11.20;99.90
45837;DHT22;31548;51.420;-0.040;2023-11-21T02:28:33;11.20;99.90
45837;DHT22;31548;51.420;-0.040;2023-11-21T02:31:01;11.20;99.90
45837;DHT22;31548;51.420;-0.040;2023-11-21T02:33:30;11.20;99.90
45837;DHT22;31548;51.420;-0.040;2023-11-21T02:36:02;11.20;99.90
45837;DHT22;31548;51.420;-0.040;2023-11-21T02:38:30;11.20;99.90
45837;DHT22;31548;51.420;-0.040;2023-11-21T02:40:58;11.20;99.90
45837;DHT22;31548;51.420;-0.040;2023-11-21T02:43:26;11.10;99.90
45837;DHT22;31548;51.420;-0.040;2023-11-21T02:45:54;11.10;99.90
45837;DHT22;31548;51.420;-0.040;2023-11-21T02:48:21;11.10;99.90
45837;DHT22;31548;51.420;-0.040;2023-11-21T02:50:51;11.10;99.90
45837;DHT22;31548;51.420;-0.040;2023-11-21T02:53:20;11.00;99.90
45837;DHT22;31548;51.420;-0.040;2023-11-21T02:55:48;11.00;99.90
45837;DHT22;31548;51.420;-0.040;2023-11-21T02:58:15;11.00;99.90
45837;DHT22;31548;51.420;-0.040;2023-11-21T03:00:43;11.00;99.90
45837;DHT22;31548;51.420;-0.040;2023-11-21T03:03:10;11.00;99.90
45837;DHT22;31548;51.420;-0.040;2023-11-21T03:05:38;11.00;99.90
45837;DHT22;31548;51.420;-0.040;2023-11-21T03:08:06;11.00;99.90
45837;DHT22;31548;51.420;-0.040;2023-11-21T03:10:34;11.00;99.90
45837;DHT22;31548;51.420;-0.040;2023-11-21T03:13:01;11.00;99.90
45837;DHT22;31548;51.420;-0.040;2023-11-21T03:15:29;11.00;99.90
45837;DHT22;31548;51.420;-0.040;2023-11-21T03:17:58;10.90;99.90
45837;DHT22;31548;51.420;-0.040;2023-11-21T03:20:25;10.90;99.90
45837;DHT22;31548;51.420;-0.040;2023-11-21T03:22:53;10.90;99.90
45837;DHT22;31548;51.420;-0.040;2023-11-21T03:25:21;10.90;99.90
45837;DHT22;31548;51.420;-0.040;2023-11-21T03:27:51;10.90;99.90
45837;DHT22;31548;51.420;-0.040;2023-11-21T03:30:19;10.90;99.90
45837;DHT22;31548;51.420;-0.040;2023-11-21T03:32:47;10.90;99.90
45837;DHT22;31548;51.420;-0.040;2023-11-21T03:35:14;11.00;99.90
45837;DHT22;31548;51.420;-0.040;2023-11-21T03:37:42;11.00;99.90
45837;DHT22;31548;51.420;-0.040;2023-11-21T03:40:11;10.90;99.90
45837;DHT22;31548;51.420;-0.040;2023-11-21T03:42:40;10.90;99.90
45837;DHT22;31548;51.420;-0.040;2023-11-21T03:45:08;10.90;99.90
45837;DHT22;31548;51.420;-0.040;2023-11-21T03:47:36;10.90;99.90
45837;DHT22;31548;51.420;-0.040;2023-11-21T03:50:04;10.90;99.90
45837;DHT22;31548;51.420;-0.040;2023-11-21T03:52:31;10.90;99.90
45837;DHT22;31548;51.420;-0.040;2023-11-21T03:55:03;10.90;99.90
45837;DHT22;31548;51.420;-0.040;2023-11-21T03:57:31;10.90;99.90
45837;DHT22;31548;51.420;-0.040;2023-11-21T04:00:00;10.80;99.90
45837;DHT22;31548;51.420;-0.040;2023-11-21T04:02:27;10.80;99.90
45837;DHT22;31548;51.420;-0.040;2023-11-21T04:04:55;10.80;99.90
45837;DHT22;31548;51.420;-0.040;2023-11-21T04:07:24;10.80;99.90
45837;DHT22;31548;51.420;-0.040;2023-11-21T04:09:51;10.80;99.90
45837;DHT22;31548;51.420;-0.040;2023-11-21T04:12:19;10.80;99.90
45837;DHT22;31548;51.420;-0.040;2023-11-21T04:14:47;10.80;99.90
45837;DHT22;31548;51.420;-0.040;2023-11-21T04:17:18;10.80;99.90
45837;DHT22;31548;51.420;-0.040;2023-11-21T04:19:46;10.80;99.90
45837;DHT22;31548;51.420;-0.040;2023-11-21T04:22:14;10.90;99.90
45837;DHT22;31548;51.420;-0.040;2023-11-21T04:24:41;10.80;99.90
45837;DHT22;31548;51.420;-0.040;2023-11-21T04:27:09;10.80;99.90
45837;DHT22;31548;51.420;-0.040;2023-11-21T04:29:36;10.80;99.90
45837;DHT22;31548;51.420;-0.040;2023-11-21T04:32:04;10.80;99.90
45837;DHT22;31548;51.420;-0.040;2023-11-21T04:34:31;10.90;99.90
45837;DHT22;31548;51.420;-0.040;2023-11-21T04:36:59;10.80;99.90
45837;DHT22;31548;51.420;-0.040;2023-11-21T04:39:27;10.80;99.90
45837;DHT22;31548;51.420;-0.040;2023-11-21T04:41:54;10.80;99.90
45837;DHT22;31548;51.420;-0.040;2023-11-21T04:44:22;10.90;99.90
45837;DHT22;31548;51.420;-0.040;2023-11-21T04:46:49;10.80;99.90
45837;DHT22;31548;51.420;-0.040;2023-11-21T04:49:17;10.80;99.90
45837;DHT22;31548;51.420;-0.040;2023-11-21T04:51:45;10.80;99.90
45837;DHT22;31548;51.420;-0.040;2023-11-21T04:54:12;10.80;99.90
45837;DHT22;31548;51.420;-0.040;2023-11-21T04:56:39;10.70;99.90
45837;DHT22;31548;51.420;-0.040;2023-11-21T04:59:07;10.80;99.90
45837;DHT22;31548;51.420;-0.040;2023-11-21T05:01:34;10.70;99.90
45837;DHT22;31548;51.420;-0.040;2023-11-21T05:04:04;10.70;99.90
45837;DHT22;31548;51.420;-0.040;2023-11-21T05:06:33;10.60;99.90
45837;DHT22;31548;51.420;-0.040;2023-11-21T05:09:01;10.60;99.90
45837;DHT22;31548;51.420;-0.040;2023-11-21T05:11:28;10.60;99.90
45837;DHT22;31548;51.420;-0.040;2023-11-21T05:13:56;10.50;99.90
45837;DHT22;31548;51.420;-0.040;2023-11-21T05:16:26;10.50;99.90
45837;DHT22;31548;51.420;-0.040;2023-11-21T05:18:55;10.50;99.90
45837;DHT22;31548;51.420;-0.040;2023-11-21T05:21:28;10.50;99.90
45837;DHT22;31548;51.420;-0.040;2023-11-21T05:23:57;10.50;99.90
45837;DHT22;31548;51.420;-0.040;2023-11-21T05:26:25;10.50;99.90
45837;DHT22;31548;51.420;-0.040;2023-11-21T05:28:52;10.40;99.90
45837;DHT22;31548;51.420;-0.040;2023-11-21T05:31:20;10.40;99.90
45837;DHT22;31548;51.420;-0.040;2023-11-21T05:33:48;10.40;99.90
45837;DHT22;31548;51.420;-0.040;2023-11-21T05:36:16;10.40;99.90
45837;DHT22;31548;51.420;-0.040;2023-11-21T05:38:43;10.40;99.90
45837;DHT22;31548;51.420;-0.040;2023-11-21T05:41:11;10.40;99.90
45837;DHT22;31548;51.420;-0.040;2023-11-21T05:43:40;10.40;99.90
45837;DHT22;31548;51.420;-0.040;2023-11-21T05:46:08;10.40;99.90
45837;DHT22;31548;51.420;-0.040;2023-11-21T05:48:36;10.40;99.90
45837;DHT22;31548;51.420;-0.040;2023-11-21T05:51:06;10.40;99.90
45837;DHT22;31548;51.420;-0.040;2023-11-21T05:53:34;10.30;99.90
45837;DHT22;31548;51.420;-0.040;2023-11-21T05:56:02;10.40;99.90
45837;DHT22;31548;51.420;-0.040;2023-11-21T05:58:31;10.30;99.90
45837;DHT22;31548;51.420;-0.040;2023-11-21T06:00:58;10.30;99.90
45837;DHT22;31548;51.420;-0.040;2023-11-21T06:03:26;10.30;99.90
45837;DHT22;31548;51.420;-0.040;2023-11-21T06:05:54;10.30;99.90
45837;DHT22;31548;51.420;-0.040;2023-11-21T06:08:21;10.30;99.90
45837;DHT22;31548;51.420;-0.040;2023-11-21T06:10:49;10.30;99.90
45837;DHT22;31548;51.420;-0.040;2023-11-21T06:13:16;10.30;99.90
45837;DHT22;31548;51.420;-0.040;2023-11-21T06:15:47;10.30;99.90
45837;DHT22;31548;51.420;-0.040;2023-11-21T06:18:15;10.30;99.90
45837;DHT22;31548;51.420;-0.040;2023-11-21T06:20:43;10.30;99.90
45837;DHT22;31548;51.420;-0.040;2023-11-21T06:23:10;10.20;99.90
45837;DHT22;31548;51.420;-0.040;2023-11-21T06:25:38;10.20;99.90
45837;DHT22;31548;51.420;-0.040;2023-11-21T06:28:06;10.20;99.90
45837;DHT22;31548;51.420;-0.040;2023-11-21T06:30:34;10.20;99.90
45837;DHT22;31548;51.420;-0.040;2023-11-21T06:33:01;10.20;99.90
45837;DHT22;31548;51.420;-0.040;2023-11-21T06:35:29;10.20;99.90
45837;DHT22;31548;51.420;-0.040;2023-11-21T06:37:59;10.20;99.90
45837;DHT22;31548;51.420;-0.040;2023-11-21T06:40:27;10.20;99.90
45837;DHT22;31548;51.420;-0.040;2023-11-21T06:42:54;10.30;99.90
45837;DHT22;31548;51.420;-0.040;2023-11-21T06:45:22;10.20;99.90
45837;DHT22;31548;51.420;-0.040;2023-11-21T06:47:50;10.20;99.90
45837;DHT22;31548;51.420;-0.040;2023-11-21T06:50:18;10.20;99.90
45837;DHT22;31548;51.420;-0.040;2023-11-21T06:52:46;10.20;99.90
45837;DHT22;31548;51.420;-0.040;2023-11-21T06:55:14;10.20;99.90
45837;DHT22;31548;51.420;-0.040;2023-11-21T06:57:41;10.20;99.90
45837;DHT22;31548;51.420;-0.040;2023-11-21T07:00:09;10.10;99.90
45837;DHT22;31548;51.420;-0.040;2023-11-21T07:02:37;10.10;99.90
45837;DHT22;31548;51.420;-0.040;2023-11-21T07:05:06;10.10;99.90
45837;DHT22;31548;51.420;-0.040;2023-11-21T07:07:33;10.10;99.90
45837;DHT22;31548;51.420;-0.040;2023-11-21T07:10:03;10.10;99.90
45837;DHT22;31548;51.420;-0.040;2023-11-21T07:12:33;10.00;99.90
45837;DHT22;31548;51.420;-0.040;2023-11-21T07:15:02;10.00;99.90
45837;DHT22;31548;51.420;-0.040;2023-11-21T07:17:30;10.00;99.90
45837;DHT22;31548;51.420;-0.040;2023-11-21T07:19:58;10.00;99.90
45837;DHT22;31548;51.420;-0.040;2023-11-21T07:22:26;10.00;99.90
45837;DHT22;31548;51.420;-0.040;2023-11-21T07:24:54;10.00;99.90
45837;DHT22;31548;51.420;-0.040;2023-11-21T07:27:21;9.90;99.90
45837;DHT22;31548;51.420;-0.040;2023-11-21T07:29:48;10.00;99.90
45837;DHT22;31548;51.420;-0.040;2023-11-21T07:32:16;10.00;99.90
45837;DHT22;31548;51.420;-0.040;2023-11-21T07:34:44;9.90;99.90
45837;DHT22;31548;51.420;-0.040;2023-11-21T07:37:11;10.00;99.90
45837;DHT22;31548;51.420;-0.040;2023-11-21T07:39:39;9.90;99.90
45837;DHT22;31548;51.420;-0.040;2023-11-21T07:42:09;9.90;99.90
45837;DHT22;31548;51.420;-0.040;2023-11-21T07:44:38;9.90;99.90
45837;DHT22;31548;51.420;-0.040;2023-11-21T07:47:05;9.90;99.90
45837;DHT22;31548;51.420;-0.040;2023-11-21T07:49:33;9.90;99.90
45837;DHT22;31548;51.420;-0.040;2023-11-21T07:52:01;9.90;99.90
45837;DHT22;31548;51.420;-0.040;2023-11-21T07:54:29;9.90;99.90
45837;DHT22;31548;51.420;-0.040;2023-11-21T07:56:56;9.90;99.90
45837;DHT22;31548;51.420;-0.040;2023-11-21T07:59:24;9.80;99.90
45837;DHT22;31548;51.420;-0.040;2023-11-21T08:01:51;9.80;99.90
45837;DHT22;31548;51.420;-0.040;2023-11-21T08:04:19;9.80;99.90
45837;DHT22;31548;51.420;-0.040;2023-11-21T08:06:46;9.90;99.90
45837;DHT22;31548;51.420;-0.040;2023-11-21T08:09:14;9.90;99.90
45837;DHT22;31548;51.420;-0.040;2023-11-21T08:11:44;9.90;99.90
45837;DHT22;31548;51.420;-0.040;2023-11-21T08:14:13;9.90;99.90
45837;DHT22;31548;51.420;-0.040;2023-11-21T08:16:42;9.90;99.90
45837;DHT22;31548;51.420;-0.040;2023-11-21T08:19:10;9.90;99.90
45837;DHT22;31548;51.420;-0.040;2023-11-21T08:21:38;9.80;99.90
45837;DHT22;31548;51.420;-0.040;2023-11-21T08:24:07;9.90;99.90
45837;DHT22;31548;51.420;-0.040;2023-11-21T08:26:38;9.80;99.90
45837;DHT22;31548;51.420;-0.040;2023-11-21T08:29:06;9.80;99.90
45837;DHT22;31548;51.420;-0.040;2023-11-21T08:31:34;9.90;99.90
45837;DHT22;31548;51.420;-0.040;2023-11-21T08:34:02;9.90;99.90
45837;DHT22;31548;51.420;-0.040;2023-11-21T08:36:30;9.80;99.90
45837;DHT22;31548;51.420;-0.040;2023-11-21T08:38:58;9.80;99.90
45837;DHT22;31548;51.420;-0.040;2023-11-21T08:41:26;9.80;99.90
45837;DHT22;31548;51.420;-0.040;2023-11-21T08:43:55;9.80;99.90
45837;DHT22;31548;51.420;-0.040;2023-11-21T08:46:23;9.80;99.90
45837;DHT22;31548;51.420;-0.040;2023-11-21T08:48:53;9.80;99.90
45837;DHT22;31548;51.420;-0.040;2023-11-21T08:51:21;9.80;99.90
45837;DHT22;31548;51.420;-0.040;2023-11-21T08:53:48;9.80;99.90
45837;DHT22;31548;51.420;-0.040;2023-11-21T08:56:16;9.80;99.90
45837;DHT22;31548;51.420;-0.040;2023-11-21T08:58:43;9.80;99.90
45837;DHT22;31548;51.420;-0.040;2023-11-21T09:01:11;9.80;99.90
45837;DHT22;31548;51.420;-0.040;2023-11-21T09:03:39;9.80;99.90
45837;DHT22;31548;51.420;-0.040;2023-11-21T09:06:08;9.80;99.90
45837;DHT22;31548;51.420;-0.040;2023-11-21T09:08:37;9.80;99.90
45837;DHT22;31548;51.420;-0.040;2023-11-21T09:11:05;9.80;99.90
45837;DHT22;31548;51.420;-0.040;2023-11-21T09:13:33;9.80;99.90
45837;DHT22;31548;51.420;-0.040;2023-11-21T09:16:02;9.80;99.90
45837;DHT22;31548;51.420;-0.040;2023-11-21T09:18:29;9.90;99.90
45837;DHT22;31548;51.420;-0.040;2023-11-21T09:20:58;9.90;99.90
45837;DHT22;31548;51.420;-0.040;2023-11-21T09:23:25;9.90;99.90
45837;DHT22;31548;51.420;-0.040;2023-11-21T09:25:53;10.00;99.90
45837;DHT22;31548;51.420;-0.040;2023-11-21T09:28:24;10.10;99.90
45837;DHT22;31548;51.420;-0.040;2023-11-21T09:30:52;10.10;99.90
45837;DHT22;31548;51.420;-0.040;2023-11-21T09:33:20;10.10;99.90
45837;DHT22;31548;51.420;-0.040;2023-11-21T09:35:49;10.20;99.90
45837;DHT22;31548;51.420;-0.040;2023-11-21T09:38:18;10.20;99.90
45837;DHT22;31548;51.420;-0.040;2023-11-21T09:40:46;10.20;99.90
45837;DHT22;31548;51.420;-0.040;2023-11-21T09:43:17;10.20;99.90
45837;DHT22;31548;51.420;-0.040;2023-11-21T09:45:59;10.20;99.90
45837;DHT22;31548;51.420;-0.040;2023-11-21T09:48:29;10.20;99.90
45837;DHT22;31548;51.420;-0.040;2023-11-21T09:50:59;10.20;99.90
45837;DHT22;31548;51.420;-0.040;2023-11-21T09:53:31;10.20;99.90
45837;DHT22;31548;51.420;-0.040;2023-11-21T09:56:00;10.30;99.90
45837;DHT22;31548;51.420;-0.040;2023-11-21T09:58:29;10.30;99.90
45837;DHT22;31548;51.420;-0.040;2023-11-21T10:00:59;10.30;99.90
45837;DHT22;31548;51.420;-0.040;2023-11-21T10:03:30;10.30;99.90
45837;DHT22;31548;51.420;-0.040;2023-11-21T10:05:58;10.40;99.90
45837;DHT22;31548;51.420;-0.040;2023-11-21T10:08:29;10.40;99.90
45837;DHT22;31548;51.420;-0.040;2023-11-21T10:11:17;10.40;99.90
45837;DHT22;31548;51.420;-0.040;2023-11-21T10:13:47;10.50;99.90
45837;DHT22;31548;51.420;-0.040;2023-11-21T10:16:18;10.40;99.90
45837;DHT22;31548;51.420;-0.040;2023-11-21T10:18:52;10.40;99.90
45837;DHT22;31548;51.420;-0.040;2023-11-21T10:21:29;10.50;99.90
45837;DHT22;31548;51.420;-0.040;2023-11-21T10:23:57;10.50;99.90
45837;DHT22;31548;51.420;-0.040;2023-11-21T10:26:29;10.50;99.90
45837;DHT22;31548;51.420;-0.040;2023-11-21T10:29:12;10.50;99.90
45837;DHT22;31548;51.420;-0.040;2023-11-21T10:31:44;10.70;99.90
45837;DHT22;31548;51.420;-0.040;2023-11-21T10:34:17;10.70;99.90
45837;DHT22;31548;51.420;-0.040;2023-11-21T10:36:45;10.80;99.90
45837;DHT22;31548;51.420;-0.040;2023-11-21T10:39:20;10.80;99.90
45837;DHT22;31548;51.420;-0.040;2023-11-21T10:41:50;10.80;99.90
45837;DHT22;31548;51.420;-0.040;2023-11-21T10:44:19;10.80;99.90
45837;DHT22;31548;51.420;-0.040;2023-11-21T10:46:55;10.80;99.90
45837;DHT22;31548;51.420;-0.040;2023-11-21T10:49:28;10.80;99.90
45837;DHT22;31548;51.420;-0.040;2023-11-21T10:51:55;10.80;99.90
45837;DHT22;31548;51.420;-0.040;2023-11-21T10:54:25;10.80;99.90
45837;DHT22;31548;51.420;-0.040;2023-11-21T10:56:58;10.80;99.90
45837;DHT22;31548;51.420;-0.040;2023-11-21T10:59:30;10.80;99.90
45837;DHT22;31548;51.420;-0.040;2023-11-21T11:02:01;10.90;99.90
45837;DHT22;31548;51.420;-0.040;2023-11-21T11:04:31;10.90;99.90
45837;DHT22;31548;51.420;-0.040;2023-11-21T11:07:03;10.90;99.90
45837;DHT22;31548;51.420;-0.040;2023-11-21T11:09:32;10.90;99.90
45837;DHT22;31548;51.420;-0.040;2023-11-21T11:12:03;11.00;99.90
45837;DHT22;31548;51.420;-0.040;2023-11-21T11:14:34;11.00;99.90
45837;DHT22;31548;51.420;-0.040;2023-11-21T11:17:02;11.00;99.90
45837;DHT22;31548;51.420;-0.040;2023-11-21T11:19:31;11.00;99.90
45837;DHT22;31548;51.420;-0.040;2023-11-21T11:22:38;10.90;99.90
45837;DHT22;31548;51.420;-0.040;2023-11-21T11:27:57;11.00;99.90
45837;DHT22;31548;51.420;-0.040;2023-11-21T11:33:31;11.00;99.90
45837;DHT22;31548;51.420;-0.040;2023-11-21T11:36:08;11.10;99.90
45837;DHT22;31548;51.420;-0.040;2023-11-21T11:38:38;11.10;99.90
45837;DHT22;31548;51.420;-0.040;2023-11-21T11:41:07;11.10;99.90
45837;DHT22;31548;51.420;-0.040;2023-11-21T11:43:36;11.10;99.90
45837;DHT22;31548;51.420;-0.040;2023-11-21T11:46:13;11.10;99.90
45837;DHT22;31548;51.420;-0.040;2023-11-21T11:48:40;11.10;99.90
45837;DHT22;31548;51.420;-0.040;2023-11-21T11:51:13;11.10;99.90
45837;DHT22;31548;51.420;-0.040;2023-11-21T11:53:48;11.20;99.90
45837;DHT22;31548;51.420;-0.040;2023-11-21T11:56:30;11.10;99.90
45837;DHT22;31548;51.420;-0.040;2023-11-21T11:59:04;11.10;99.90
45837;DHT22;31548;51.420;-0.040;2023-11-21T12:01:33;11.20;99.90
45837;DHT22;31548;51.420;-0.040;2023-11-21T12:06:42;11.10;99.90
45837;DHT22;31548;51.420;-0.040;2023-11-21T12:09:22;11.10;99.90
45837;DHT22;31548;51.420;-0.040;2023-11-21T12:11:50;11.20;99.90
45837;DHT22;31548;51.420;-0.040;2023-11-21T12:14:18;11.10;99.90
45837;DHT22;31548;51.420;-0.040;2023-11-21T12:16:45;11.20;99.90
45837;DHT22;31548;51.420;-0.040;2023-11-21T12:19:13;11.20;99.90
45837;DHT22;31548;51.420;-0.040;2023-11-21T12:21:41;11.20;99.90
45837;DHT22;31548;51.420;-0.040;2023-11-21T12:24:09;11.30;99.90
45837;DHT22;31548;51.420;-0.040;2023-11-21T12:26:37;11.40;99.90
45837;DHT22;31548;51.420;-0.040;2023-11-21T12:29:04;11.40;99.90
45837;DHT22;31548;51.420;-0.040;2023-11-21T12:31:35;11.30;99.90
45837;DHT22;31548;51.420;-0.040;2023-11-21T12:34:04;11.30;99.90
45837;DHT22;31548;51.420;-0.040;2023-11-21T12:36:31;11.40;99.90
45837;DHT22;31548;51.420;-0.040;2023-11-21T12:39:01;11.40;99.90
45837;DHT22;31548;51.420;-0.040;2023-11-21T12:41:30;11.40;99.90
45837;DHT22;31548;51.420;-0.040;2023-11-21T12:43:58;11.40;99.90
45837;DHT22;31548;51.420;-0.040;2023-11-21T12:46:26;11.40;99.90
45837;DHT22;31548;51.420;-0.040;2023-11-21T12:48:57;11.50;99.90
45837;DHT22;31548;51.420;-0.040;2023-11-21T12:51:25;11.50;99.90
45837;DHT22;31548;51.420;-0.040;2023-11-21T12:53:52;11.60;99.90
45837;DHT22;31548;51.420;-0.040;2023-11-21T12:56:21;11.50;99.90
45837;DHT22;31548;51.420;-0.040;2023-11-21T12:58:53;11.50;99.90
45837;DHT22;31548;51.420;-0.040;2023-11-21T13:01:26;11.50;99.90
45837;DHT22;31548;51.420;-0.040;2023-11-21T13:03:57;11.50;99.90
45837;DHT22;31548;51.420;-0.040;2023-11-21T13:06:25;11.50;99.90
45837;DHT22;31548;51.420;-0.040;2023-11-21T13:08:54;11.50;99.90
45837;DHT22;31548;51.420;-0.040;2023-11-21T13:11:24;11.60;99.90
45837;DHT22;31548;51.420;-0.040;2023-11-21T13:13:54;11.60;99.90
45837;DHT22;31548;51.420;-0.040;2023-11-21T13:16:23;11.60;99.90
45837;DHT22;31548;51.420;-0.040;2023-11-21T13:18:51;11.70;99.90
45837;DHT22;31548;51.420;-0.040;2023-11-21T13:21:18;11.70;99.90
45837;DHT22;31548;51.420;-0.040;2023-11-21T13:23:45;11.70;99.90
45837;DHT22;31548;51.420;-0.040;2023-11-21T13:26:13;11.70;99.90
45837;DHT22;31548;51.420;-0.040;2023-11-21T13:28:42;11.70;99.90
45837;DHT22;31548;51.420;-0.040;2023-11-21T13:31:14;11.70;99.90
45837;DHT22;31548;51.420;-0.040;2023-11-21T13:33:54;11.70;99.90
45837;DHT22;31548;51.420;-0.040;2023-11-21T13:36:32;11.60;99.90
45837;DHT22;31548;51.420;-0.040;2023-11-21T13:39:03;11.70;99.90
45837;DHT22;31548;51.420;-0.040;2023-11-21T13:41:35;11.70;99.90
45837;DHT22;31548;51.420;-0.040;2023-11-21T13:44:06;11.60;99.90
45837;DHT22;31548;51.420;-0.040;2023-11-21T13:46:47;11.60;99.90
45837;DHT22;31548;51.420;-0.040;2023-11-21T13:49:14;11.70;99.90
45837;DHT22;31548;51.420;-0.040;2023-11-21T13:51:43;11.80;99.90
45837;DHT22;31548;51.420;-0.040;2023-11-21T13:54:18;11.70;99.90
45837;DHT22;31548;51.420;-0.040;2023-11-21T13:56:47;11.70;99.90
45837;DHT22;31548;51.420;-0.040;2023-11-21T13:59:16;11.70;99.90
45837;DHT22;31548;51.420;-0.040;2023-11-21T14:01:56;11.60;99.90
45837;DHT22;31548;51.420;-0.040;2023-11-21T14:04:28;11.50;99.90
45837;DHT22;31548;51.420;-0.040;2023-11-21T14:06:58;11.40;99.90
45837;DHT22;31548;51.420;-0.040;2023-11-21T14:09:29;11.40;99.90
45837;DHT22;31548;51.420;-0.040;2023-11-21T14:12:03;11.30;99.90
45837;DHT22;31548;51.420;-0.040;2023-11-21T14:14:33;11.20;99.90
45837;DHT22;31548;51.420;-0.040;2023-11-21T14:17:01;11.20;99.90
45837;DHT22;31548;51.420;-0.040;2023-11-21T14:19:34;11.20;99.90
45837;DHT22;31548;51.420;-0.040;2023-11-21T14:22:04;11.10;99.90
45837;DHT22;31548;51.420;-0.040;2023-11-21T14:24:32;11.00;99.90
45837;DHT22;31548;51.420;-0.040;2023-11-21T14:27:00;11.00;99.90
45837;DHT22;31548;51.420;-0.040;2023-11-21T14:29:27;11.00;99.90
45837;DHT22;31548;51.420;-0.040;2023-11-21T14:31:56;10.90;99.90
45837;DHT22;31548;51.420;-0.040;2023-11-21T14:34:25;11.00;99.90
45837;DHT22;31548;51.420;-0.040;2023-11-21T14:36:54;11.00;99.90
45837;DHT22;31548;51.420;-0.040;2023-11-21T14:39:21;11.00;99.90
45837;DHT22;31548;51.420;-0.040;2023-11-21T14:41:56;11.00;99.90
45837;DHT22;31548;51.420;-0.040;2023-11-21T14:44:25;11.00;99.90
45837;DHT22;31548;51.420;-0.040;2023-11-21T14:47:00;11.00;99.90
45837;DHT22;31548;51.420;-0.040;2023-11-21T14:49:30;10.90;99.90
45837;DHT22;31548;51.420;-0.040;2023-11-21T14:52:08;11.00;99.90
45837;DHT22;31548;51.420;-0.040;2023-11-21T14:54:51;11.00;99.90
45837;DHT22;31548;51.420;-0.040;2023-11-21T14:57:27;10.90;99.90
45837;DHT22;31548;51.420;-0.040;2023-11-21T14:59:55;10.90;99.90
45837;DHT22;31548;51.420;-0.040;2023-11-21T15:02:25;10.80;99.90
45837;DHT22;31548;51.420;-0.040;2023-11-21T15:05:13;10.80;99.90
45837;DHT22;31548;51.420;-0.040;2023-11-21T15:07:44;10.80;99.90
45837;DHT22;31548;51.420;-0.040;2023-11-21T15:10:17;10.70;99.90
45837;DHT22;31548;51.420;-0.040;2023-11-21T15:12:47;10.70;99.90
45837;DHT22;31548;51.420;-0.040;2023-11-21T15:15:14;10.70;99.90
45837;DHT22;31548;51.420;-0.040;2023-11-21T15:17:42;10.80;99.90
45837;DHT22;31548;51.420;-0.040;2023-11-21T15:20:11;10.70;99.90
45837;DHT22;31548;51.420;-0.040;2023-11-21T15:22:46;10.70;99.90
45837;DHT22;31548;51.420;-0.040;2023-11-21T15:25:14;10.70;99.90
45837;DHT22;31548;51.420;-0.040;2023-11-21T15:27:42;10.70;99.90
45837;DHT22;31548;51.420;-0.040;2023-11-21T15:30:09;10.60;99.90
45837;DHT22;31548;51.420;-0.040;2023-11-21T15:32:37;10.70;99.90
45837;DHT22;31548;51.420;-0.040;2023-11-21T15:35:07;10.70;99.90
45837;DHT22;31548;51.420;-0.040;2023-11-21T15:37:40;10.70;99.90